createdAt,value
2019-05-13T00:01:44.471Z,14.61
2019-05-13T00:04:16.115Z,14.69
2019-05-13T00:06:54.105Z,14.78
2019-05-13T00:09:24.520Z,14.76
2019-05-13T00:11:57.386Z,14.66
2019-05-13T00:14:28.844Z,14.65
2019-05-13T00:17:04.220Z,14.67
2019-05-13T00:19:36.123Z,14.66
2019-05-13T00:22:07.833Z,14.73
2019-05-13T00:24:39.333Z,14.77
2019-05-13T00:27:11.488Z,14.74
2019-05-13T00:29:44.398Z,14.66
2019-05-13T00:32:16.031Z,14.64
2019-05-13T00:34:47.539Z,14.61
2019-05-13T00:37:20.119Z,14.62
2019-05-13T00:39:51.760Z,14.64
2019-05-13T00:42:24.542Z,14.69
2019-05-13T00:44:57.329Z,14.67
2019-05-13T00:47:29.919Z,14.62
2019-05-13T00:50:04.943Z,14.58
2019-05-13T00:52:37.412Z,14.56
2019-05-13T00:55:10.076Z,14.55
2019-05-13T00:57:43.649Z,14.54
2019-05-13T01:00:15.307Z,14.55
2019-05-13T01:02:46.804Z,14.61
2019-05-13T01:05:23.447Z,14.62
2019-05-13T01:07:58.503Z,14.62
2019-05-13T01:10:34.219Z,14.59
2019-05-13T01:13:08.962Z,14.64
2019-05-13T01:15:40.584Z,14.60
2019-05-13T01:18:14.322Z,14.61
2019-05-13T01:20:46.207Z,14.65
2019-05-13T01:23:20.908Z,14.72
2019-05-13T01:25:54.513Z,14.72
2019-05-13T01:28:26.678Z,14.71
2019-05-13T01:30:58.285Z,14.82
2019-05-13T01:33:32.008Z,14.84
2019-05-13T01:36:05.200Z,14.82
2019-05-13T01:38:37.140Z,14.78
2019-05-13T01:41:09.918Z,14.82
2019-05-13T01:43:43.935Z,14.83
2019-05-13T01:46:15.274Z,14.82
2019-05-13T01:48:46.926Z,14.76
2019-05-13T01:51:19.157Z,14.78
2019-05-13T01:53:53.267Z,14.83
2019-05-13T01:56:24.621Z,14.85
2019-05-13T01:58:57.193Z,14.85
2019-05-13T02:01:33.692Z,14.86
2019-05-13T02:04:05.273Z,14.82
2019-05-13T02:06:37.864Z,14.78
2019-05-13T02:09:14.166Z,14.74
2019-05-13T02:11:46.711Z,14.81
2019-05-13T02:14:18.446Z,14.89
2019-05-13T02:16:49.995Z,14.93
2019-05-13T02:19:24.439Z,14.92
2019-05-13T02:21:55.922Z,15.07
2019-05-13T02:24:27.584Z,15.02
2019-05-13T02:27:03.466Z,14.95
2019-05-13T02:29:34.655Z,14.92
2019-05-13T02:32:06.151Z,15.01
2019-05-13T02:34:37.796Z,15.05
2019-05-13T02:37:12.571Z,15.19
2019-05-13T02:39:43.008Z,15.22
2019-05-13T02:42:15.684Z,15.25
2019-05-13T02:44:47.212Z,15.21
2019-05-13T02:47:22.600Z,15.23
2019-05-13T02:49:54.081Z,15.40
2019-05-13T02:52:26.084Z,15.49
2019-05-13T02:54:57.645Z,15.42
2019-05-13T02:57:32.723Z,15.49
2019-05-13T03:00:06.707Z,15.47
2019-05-13T03:02:38.282Z,15.50
2019-05-13T03:05:13.639Z,15.57
2019-05-13T03:07:46.183Z,15.54
2019-05-13T03:10:22.170Z,15.51
2019-05-13T03:12:53.432Z,15.47
2019-05-13T03:15:26.167Z,15.43
2019-05-13T03:18:06.853Z,15.47
2019-05-13T03:20:38.478Z,15.44
2019-05-13T03:23:13.064Z,15.41
2019-05-13T03:25:44.252Z,15.37
2019-05-13T03:28:15.991Z,15.32
2019-05-13T03:30:56.265Z,15.48
2019-05-13T03:33:27.958Z,15.48
2019-05-13T03:35:58.232Z,15.53
2019-05-13T03:38:32.916Z,15.47
2019-05-13T03:41:05.561Z,15.44
2019-05-13T03:43:42.823Z,15.52
2019-05-13T03:46:13.760Z,15.61
2019-05-13T03:48:47.458Z,15.54
2019-05-13T03:51:21.961Z,15.49
2019-05-13T03:53:53.537Z,15.53
2019-05-13T03:56:25.480Z,15.49
2019-05-13T03:58:57.025Z,15.47
2019-05-13T04:01:32.267Z,15.70
2019-05-13T04:04:03.294Z,15.72
2019-05-13T04:06:36.207Z,15.78
2019-05-13T04:09:22.309Z,15.82
2019-05-13T04:11:42.352Z,15.79
2019-05-13T04:14:14.085Z,15.78
2019-05-13T04:16:45.692Z,15.97
2019-05-13T04:19:18.243Z,16.07
2019-05-13T04:21:52.602Z,16.26
2019-05-13T04:24:23.324Z,16.33
2019-05-13T04:26:56.855Z,16.61
2019-05-13T04:29:28.363Z,17.10
2019-05-13T04:32:02.280Z,17.49
2019-05-13T04:34:34.279Z,17.66
2019-05-13T04:37:05.923Z,18.37
2019-05-13T04:39:47.610Z,20.35
2019-05-13T04:42:12.407Z,21.14
2019-05-13T04:44:44.086Z,22.26
2019-05-13T04:47:15.629Z,22.16
2019-05-13T04:49:48.860Z,21.96
2019-05-13T04:52:22.267Z,21.32
2019-05-13T04:54:54.760Z,20.97
2019-05-13T04:57:26.350Z,19.39
2019-05-13T04:59:57.987Z,19.44
2019-05-13T05:02:55.757Z,19.37
2019-05-13T05:05:36.127Z,21.58
2019-05-13T05:08:47.531Z,22.43
2019-05-13T05:11:52.699Z,21.93
2019-05-13T05:15:02.867Z,20.84
2019-05-13T05:17:52.357Z,20.88
2019-05-13T05:20:52.042Z,19.70
2019-05-13T05:23:35.519Z,19.57
2019-05-13T05:26:43.709Z,19.09
2019-05-13T05:29:42.237Z,19.11
2019-05-13T05:32:31.861Z,18.57
2019-05-13T05:35:38.674Z,18.95
2019-05-13T05:38:31.671Z,18.74
2019-05-13T05:41:05.460Z,18.67
2019-05-13T05:43:42.334Z,18.61
2019-05-13T05:46:14.741Z,18.67
2019-05-13T05:48:52.960Z,19.08
2019-05-13T05:51:25.784Z,19.09
2019-05-13T05:54:02.454Z,19.30
2019-05-13T05:56:33.798Z,19.35
2019-05-13T05:59:05.484Z,20.08
2019-05-13T06:01:41.602Z,19.74
2019-05-13T06:04:16.037Z,20.17
2019-05-13T06:06:48.037Z,20.31
2019-05-13T06:09:21.590Z,20.71
2019-05-13T06:11:53.946Z,22.55
2019-05-13T06:14:26.638Z,21.87
2019-05-13T06:17:02.650Z,21.49
2019-05-13T06:19:33.708Z,21.42
2019-05-13T06:22:05.379Z,20.96
2019-05-13T06:24:38.697Z,20.67
2019-05-13T06:27:11.830Z,21.06
2019-05-13T06:29:44.109Z,22.19
2019-05-13T06:32:22.452Z,22.46
2019-05-13T06:34:52.296Z,22.84
2019-05-13T06:37:23.839Z,23.94
2019-05-13T06:39:56.493Z,24.62
2019-05-13T06:42:29.035Z,25.32
2019-05-13T06:45:04.518Z,25.11
2019-05-13T06:47:36.384Z,26.90
2019-05-13T06:50:08.148Z,25.76
2019-05-13T06:52:42.449Z,25.86
2019-05-13T06:55:17.897Z,24.28
2019-05-13T06:57:51.735Z,26.11
2019-05-13T07:00:22.951Z,26.21
2019-05-13T07:02:54.575Z,24.79
2019-05-13T07:05:26.204Z,26.69
2019-05-13T07:07:57.872Z,26.59
2019-05-13T07:10:31.924Z,25.37
2019-05-13T07:13:02.962Z,24.76
2019-05-13T07:15:37.366Z,25.38
2019-05-13T07:18:08.189Z,25.87
2019-05-13T07:20:42.400Z,24.42
2019-05-13T07:23:13.064Z,23.61
2019-05-13T07:25:44.672Z,24.65
2019-05-13T07:28:16.291Z,24.94
2019-05-13T07:30:48.424Z,24.38
2019-05-13T07:33:21.390Z,23.69
2019-05-13T07:35:58.051Z,23.33
2019-05-13T07:38:28.552Z,23.25
2019-05-13T07:41:04.434Z,23.03
2019-05-13T07:43:37.181Z,23.49
2019-05-13T07:46:08.813Z,24.06
2019-05-13T07:48:41.623Z,25.67
2019-05-13T07:51:22.174Z,26.05
2019-05-13T07:53:53.678Z,27.99
2019-05-13T07:56:25.199Z,27.19
2019-05-13T07:58:57.064Z,26.36
2019-05-13T08:01:28.808Z,26.57
2019-05-13T08:04:02.162Z,25.82
2019-05-13T08:06:33.785Z,25.84
2019-05-13T08:09:08.377Z,26.61
2019-05-13T08:11:58.214Z,26.22
2019-05-13T08:14:15.269Z,26.79
2019-05-13T08:16:52.265Z,26.84
2019-05-13T08:19:26.670Z,25.45
2019-05-13T08:21:58.263Z,25.28
2019-05-13T08:24:31.426Z,24.54
2019-05-13T08:27:04.253Z,24.11
2019-05-13T08:29:42.188Z,23.60
2019-05-13T08:32:15.038Z,22.92
2019-05-13T08:34:52.505Z,23.54
2019-05-13T08:37:21.669Z,22.81
2019-05-13T08:39:53.487Z,23.59
2019-05-13T08:42:25.277Z,24.20
2019-05-13T08:45:01.881Z,24.93
2019-05-13T08:47:34.845Z,25.13
2019-05-13T08:50:11.977Z,24.39
2019-05-13T08:52:45.019Z,24.72
2019-05-13T08:55:17.677Z,24.99
2019-05-13T08:57:53.220Z,24.88
2019-05-13T09:00:52.538Z,25.01
2019-05-13T09:03:23.905Z,24.56
2019-05-13T09:05:59.320Z,24.59
2019-05-13T09:08:42.435Z,24.58
2019-05-13T09:11:16.242Z,24.17
2019-05-13T09:13:51.577Z,23.99
2019-05-13T09:16:26.202Z,23.51
2019-05-13T09:19:03.676Z,24.12
2019-05-13T09:21:34.070Z,23.72
2019-05-13T09:24:20.640Z,23.69
2019-05-13T09:26:42.154Z,23.76
2019-05-13T09:29:13.667Z,23.65
2019-05-13T09:31:47.464Z,23.38
2019-05-13T09:34:21.905Z,23.53
2019-05-13T09:36:58.918Z,23.65
2019-05-13T09:39:37.179Z,24.24
2019-05-13T09:42:12.654Z,23.67
2019-05-13T09:44:52.294Z,23.61
2019-05-13T09:47:23.133Z,24.08
2019-05-13T09:49:56.913Z,24.21
2019-05-13T09:52:28.669Z,23.72
2019-05-13T09:55:03.378Z,24.15
2019-05-13T09:57:36.647Z,24.11
2019-05-13T10:00:11.998Z,24.21
2019-05-13T10:02:46.234Z,24.19
2019-05-13T10:05:33.734Z,24.11
2019-05-13T10:08:22.319Z,24.15
2019-05-13T10:11:15.631Z,24.05
2019-05-13T10:13:48.398Z,23.99
2019-05-13T10:16:23.714Z,23.23
2019-05-13T10:18:55.548Z,23.00
2019-05-13T10:21:28.157Z,23.05
2019-05-13T10:23:59.608Z,23.20
2019-05-13T10:26:32.242Z,22.66
2019-05-13T10:29:04.190Z,22.68
2019-05-13T10:31:36.211Z,22.67
2019-05-13T10:34:09.489Z,22.35
2019-05-13T10:36:42.562Z,21.95
2019-05-13T10:39:14.310Z,21.86
2019-05-13T10:41:48.935Z,21.91
2019-05-13T10:44:25.582Z,22.18
2019-05-13T10:46:57.994Z,22.03
2019-05-13T10:49:33.127Z,22.14
2019-05-13T10:52:03.953Z,22.22
2019-05-13T10:54:41.722Z,22.35
2019-05-13T10:59:48.366Z,22.43
2019-05-13T11:02:22.323Z,22.60
2019-05-13T11:04:54.001Z,22.76
2019-05-13T11:07:27.298Z,22.63
2019-05-13T11:10:02.309Z,22.69
2019-05-13T11:12:34.453Z,22.68
2019-05-13T11:15:07.245Z,22.80
2019-05-13T11:17:42.830Z,22.95
2019-05-13T11:20:15.675Z,22.78
2019-05-13T11:22:52.199Z,22.93
2019-05-13T11:25:24.153Z,23.09
2019-05-13T11:27:58.490Z,23.44
2019-05-13T11:30:32.005Z,23.68
2019-05-13T11:33:10.233Z,23.63
2019-05-13T11:35:59.006Z,23.77
2019-05-13T11:38:32.669Z,23.70
2019-05-13T11:41:04.133Z,23.74
2019-05-13T11:43:35.768Z,23.59
2019-05-13T11:46:09.402Z,23.51
2019-05-13T11:48:55.651Z,23.45
2019-05-13T11:51:31.954Z,23.38
2019-05-13T11:54:05.054Z,23.22
2019-05-13T11:56:48.424Z,23.16
2019-05-13T11:59:14.461Z,23.19
2019-05-13T12:01:49.093Z,23.49
2019-05-13T12:04:24.081Z,23.37
2019-05-13T12:06:55.624Z,23.29
2019-05-13T12:09:31.967Z,23.15
2019-05-13T12:12:13.245Z,23.20
2019-05-13T12:15:18.094Z,23.41
2019-05-13T12:17:17.498Z,23.74
2019-05-13T12:19:49.137Z,23.73
2019-05-13T12:22:22.973Z,23.40
2019-05-13T12:25:02.108Z,22.57
2019-05-13T12:27:34.053Z,22.07
2019-05-13T12:30:08.021Z,22.02
2019-05-13T12:32:43.766Z,21.68
2019-05-13T12:35:14.863Z,21.41
2019-05-13T12:37:53.033Z,21.18
2019-05-13T12:40:23.199Z,21.04
2019-05-13T12:42:56.082Z,20.66
2019-05-13T12:45:30.340Z,20.12
2019-05-13T12:48:03.701Z,20.04
2019-05-13T12:50:42.494Z,19.94
2019-05-13T12:53:16.300Z,19.57
2019-05-13T12:55:55.746Z,19.28
2019-05-13T12:58:28.666Z,19.27
2019-05-13T13:01:07.247Z,19.36
2019-05-13T13:03:52.108Z,19.45
2019-05-13T13:06:36.156Z,19.87
2019-05-13T13:09:03.210Z,19.80
2019-05-13T13:11:42.559Z,19.88
2019-05-13T13:14:18.389Z,20.01
2019-05-13T13:16:53.873Z,19.90
2019-05-13T13:19:26.098Z,19.83
2019-05-13T13:22:04.780Z,19.82
2019-05-13T13:24:33.228Z,19.69
2019-05-13T13:27:04.666Z,19.79
2019-05-13T13:29:38.179Z,19.82
2019-05-13T13:32:13.472Z,19.88
2019-05-13T13:34:46.968Z,19.75
2019-05-13T13:37:18.744Z,19.83
2019-05-13T13:39:55.081Z,19.96
2019-05-13T13:42:26.660Z,19.96
2019-05-13T13:44:58.678Z,20.10
2019-05-13T13:47:33.211Z,20.09
2019-05-13T13:50:05.697Z,20.14
2019-05-13T13:52:38.560Z,20.12
2019-05-13T13:55:15.298Z,20.24
2019-05-13T13:57:47.055Z,20.13
2019-05-13T14:00:34.365Z,20.14
2019-05-13T14:02:56.857Z,20.30
2019-05-13T14:05:29.649Z,20.35
2019-05-13T14:06:26.942Z,22.39
2019-05-13T14:08:03.967Z,20.42
2019-05-13T14:10:35.714Z,20.40
2019-05-13T14:13:12.511Z,20.43
2019-05-13T14:15:45.422Z,20.33
2019-05-13T14:18:18.268Z,20.34
2019-05-13T14:20:52.896Z,20.43
2019-05-13T14:23:23.755Z,20.37
2019-05-13T14:25:56.514Z,20.42
2019-05-13T14:28:29.189Z,20.44
2019-05-13T14:31:02.840Z,20.45
2019-05-13T14:33:35.541Z,20.50
2019-05-13T14:36:07.762Z,20.50
2019-05-13T14:38:39.888Z,20.45
2019-05-13T14:41:12.443Z,20.61
2019-05-13T14:43:46.341Z,20.51
2019-05-13T14:46:23.236Z,20.57
2019-05-13T14:48:52.443Z,20.65
2019-05-13T14:51:24.190Z,20.80
2019-05-13T14:53:58.106Z,20.80
2019-05-13T14:56:32.387Z,20.65
2019-05-13T14:59:04.615Z,20.72
2019-05-13T15:01:37.531Z,20.82
2019-05-13T15:04:11.973Z,20.79
2019-05-13T15:06:42.748Z,20.67
2019-05-13T15:09:14.344Z,20.62
2019-05-13T15:11:46.307Z,20.49
2019-05-13T15:14:18.503Z,20.58
2019-05-13T15:17:02.366Z,20.66
2019-05-13T15:19:24.155Z,20.57
2019-05-13T15:21:56.796Z,20.46
2019-05-13T15:24:32.298Z,20.56
2019-05-13T15:27:04.401Z,20.47
2019-05-13T15:29:36.111Z,20.41
2019-05-13T15:32:07.837Z,20.41
2019-05-13T15:34:42.073Z,20.22
2019-05-13T15:37:13.051Z,20.19
2019-05-13T15:39:47.817Z,20.23
2019-05-13T15:42:21.380Z,20.33
2019-05-13T15:44:53.189Z,20.36
2019-05-13T15:47:26.922Z,20.38
2019-05-13T15:50:02.205Z,20.28
2019-05-13T15:52:36.314Z,20.15
2019-05-13T15:55:13.644Z,20.23
2019-05-13T15:57:47.896Z,20.32
2019-05-13T16:00:32.264Z,20.37
2019-05-13T16:03:05.000Z,20.32
2019-05-13T16:05:37.684Z,20.18
2019-05-13T16:08:11.977Z,20.16
2019-05-13T16:10:43.810Z,20.15
2019-05-13T16:13:15.376Z,19.96
2019-05-13T16:15:47.187Z,19.82
2019-05-13T16:18:22.215Z,19.72
2019-05-13T16:20:54.082Z,19.79
2019-05-13T16:23:27.813Z,19.70
2019-05-13T16:26:01.615Z,19.73
2019-05-13T16:28:33.143Z,19.77
2019-05-13T16:31:07.415Z,19.59
2019-05-13T16:33:41.584Z,19.49
2019-05-13T16:36:12.981Z,19.50
2019-05-13T16:38:51.148Z,19.44
2019-05-13T16:41:23.513Z,19.33
2019-05-13T16:43:55.121Z,19.11
2019-05-13T16:46:28.201Z,19.09
2019-05-13T16:49:01.411Z,19.01
2019-05-13T16:51:34.324Z,19.08
2019-05-13T16:54:06.995Z,19.20
2019-05-13T16:56:42.066Z,19.17
2019-05-13T16:59:13.001Z,19.03
2019-05-13T17:01:45.362Z,18.95
2019-05-13T17:04:22.741Z,18.86
2019-05-13T17:06:55.406Z,18.79
2019-05-13T17:09:28.632Z,18.80
2019-05-13T17:12:01.375Z,18.84
2019-05-13T17:14:33.301Z,18.77
2019-05-13T17:17:06.138Z,18.79
2019-05-13T17:19:42.307Z,18.68
2019-05-13T17:22:14.199Z,18.76
2019-05-13T17:24:47.403Z,18.76
2019-05-13T17:27:21.354Z,18.67
2019-05-13T17:29:53.222Z,18.59
2019-05-13T17:32:25.797Z,18.50
2019-05-13T17:34:57.398Z,18.58
2019-05-13T17:37:31.211Z,18.42
2019-05-13T17:40:02.497Z,18.49
2019-05-13T17:42:35.173Z,18.51
2019-05-13T17:45:13.011Z,18.49
2019-05-13T17:47:45.699Z,18.51
2019-05-13T17:50:17.818Z,18.44
2019-05-13T17:52:51.877Z,18.55
2019-05-13T17:55:25.447Z,18.53
2019-05-13T17:57:57.264Z,18.44
2019-05-13T18:00:28.909Z,18.27
2019-05-13T18:03:01.968Z,18.12
2019-05-13T18:05:34.158Z,18.04
2019-05-13T18:08:05.853Z,18.13
2019-05-13T18:10:38.446Z,18.01
2019-05-13T18:13:12.448Z,17.90
2019-05-13T18:15:44.043Z,17.88
2019-05-13T18:18:21.407Z,17.82
2019-05-13T18:20:52.239Z,17.86
2019-05-13T18:23:24.317Z,17.78
2019-05-13T18:25:56.387Z,17.53
2019-05-13T18:28:31.274Z,17.53
2019-05-13T18:31:02.842Z,17.39
2019-05-13T18:33:35.798Z,17.36
2019-05-13T18:36:07.623Z,17.18
2019-05-13T18:38:41.915Z,17.28
2019-05-13T18:41:13.603Z,17.17
2019-05-13T18:43:45.173Z,17.17
2019-05-13T18:46:16.763Z,17.22
2019-05-13T18:48:58.518Z,17.10
2019-05-13T18:51:25.808Z,17.12
2019-05-13T18:53:57.440Z,17.19
2019-05-13T18:56:32.312Z,17.17
2019-05-13T18:59:12.328Z,17.26
2019-05-13T19:01:42.964Z,17.30
2019-05-13T19:04:14.572Z,17.27
2019-05-13T19:06:46.288Z,17.28
2019-05-13T19:09:17.898Z,17.30
2019-05-13T19:11:53.186Z,17.20
2019-05-13T19:14:25.097Z,17.22
2019-05-13T19:16:56.651Z,17.22
2019-05-13T19:19:28.935Z,17.34
2019-05-13T19:22:02.185Z,17.35
2019-05-13T19:24:34.022Z,17.35
2019-05-13T19:27:07.611Z,17.37
2019-05-13T19:29:42.418Z,17.42
2019-05-13T19:32:16.177Z,17.40
2019-05-13T19:34:48.053Z,17.29
2019-05-13T19:37:22.228Z,17.28
2019-05-13T19:39:53.204Z,17.33
2019-05-13T19:42:24.896Z,17.36
2019-05-13T19:45:01.947Z,17.34
2019-05-13T19:47:38.050Z,17.42
2019-05-13T19:50:09.886Z,17.41
2019-05-13T19:52:42.564Z,17.37
2019-05-13T19:55:16.140Z,17.29
2019-05-13T19:57:47.795Z,17.31
2019-05-13T20:00:21.192Z,17.39
2019-05-13T20:02:53.036Z,17.48
2019-05-13T20:05:24.630Z,17.48
2019-05-13T20:07:56.231Z,17.45
2019-05-13T20:10:27.989Z,17.45
2019-05-13T20:13:01.712Z,17.44
2019-05-13T20:15:32.966Z,17.47
2019-05-13T20:18:04.714Z,17.52
2019-05-13T20:20:41.330Z,17.45
2019-05-13T20:23:12.955Z,17.42
2019-05-13T20:25:44.524Z,17.49
2019-05-13T20:28:16.079Z,17.49
2019-05-13T20:30:51.485Z,17.53
2019-05-13T20:33:23.014Z,17.48
2019-05-13T20:35:56.628Z,17.39
2019-05-13T20:38:31.861Z,17.42
2019-05-13T20:41:05.020Z,17.40
2019-05-13T20:43:36.598Z,17.42
2019-05-13T20:46:08.189Z,17.41
2019-05-13T20:48:41.165Z,17.38
2019-05-13T20:51:13.921Z,17.37
2019-05-13T20:53:47.504Z,17.31
2019-05-13T20:56:21.213Z,17.23
2019-05-13T20:58:57.775Z,17.29
2019-05-13T21:01:29.295Z,17.23
2019-05-13T21:04:01.771Z,17.20
2019-05-13T21:06:33.479Z,17.15
2019-05-13T21:09:06.408Z,17.22
2019-05-13T21:11:37.966Z,17.11
2019-05-13T21:14:09.524Z,17.07
2019-05-13T21:16:42.275Z,17.05
2019-05-13T21:19:13.809Z,17.03
2019-05-13T21:21:47.310Z,17.00
2019-05-13T21:24:21.339Z,17.02
2019-05-13T21:26:56.894Z,16.88
2019-05-13T21:29:35.006Z,16.86
2019-05-13T21:32:06.523Z,16.82
2019-05-13T21:34:38.070Z,16.85
2019-05-13T21:37:16.694Z,16.79
2019-05-13T21:39:48.259Z,16.71
2019-05-13T21:42:23.233Z,16.69
2019-05-13T21:44:55.290Z,16.79
2019-05-13T21:47:26.863Z,16.68
2019-05-13T21:49:58.443Z,16.69
2019-05-13T21:52:32.348Z,16.61
2019-05-13T21:55:05.593Z,16.63
2019-05-13T21:57:38.162Z,16.63
2019-05-13T22:00:12.043Z,16.63
2019-05-13T22:02:45.143Z,16.62
2019-05-13T22:05:17.728Z,16.58
2019-05-13T22:07:49.286Z,16.60
2019-05-13T22:10:21.617Z,16.52
2019-05-13T22:12:53.320Z,16.50
2019-05-13T22:15:26.837Z,16.43
2019-05-13T22:17:58.423Z,16.49
2019-05-13T22:20:33.052Z,16.42
2019-05-13T22:23:04.391Z,16.45
2019-05-13T22:25:43.702Z,16.39
2019-05-13T22:28:15.035Z,16.39
2019-05-13T22:30:46.640Z,16.33
2019-05-13T22:33:18.132Z,16.38
2019-05-13T22:35:52.245Z,16.38
2019-05-13T22:38:24.118Z,16.27
2019-05-13T22:40:55.672Z,16.31
2019-05-13T22:43:28.717Z,16.29
2019-05-13T22:46:00.289Z,16.21
2019-05-13T22:48:31.994Z,16.15
2019-05-13T22:51:03.514Z,16.14
2019-05-13T22:53:35.230Z,16.19
2019-05-13T22:56:08.759Z,16.12
2019-05-13T22:58:41.247Z,16.04
2019-05-13T23:01:12.849Z,16.04
2019-05-13T23:03:44.415Z,15.97
2019-05-13T23:06:16.012Z,15.98
2019-05-13T23:08:49.544Z,15.99
2019-05-13T23:11:21.942Z,15.91
2019-05-13T23:14:06.369Z,15.92
2019-05-13T23:16:26.777Z,15.91
2019-05-13T23:18:58.356Z,15.90
2019-05-13T23:21:31.252Z,15.85
2019-05-13T23:24:04.010Z,15.79
2019-05-13T23:26:36.616Z,15.75
2019-05-13T23:29:08.527Z,15.77
2019-05-13T23:31:41.523Z,15.74
2019-05-13T23:34:14.320Z,15.74
2019-05-13T23:36:45.959Z,15.78
2019-05-13T23:39:18.694Z,15.70
2019-05-13T23:41:52.330Z,15.70
2019-05-13T23:44:27.983Z,15.73
2019-05-13T23:46:58.857Z,15.74
2019-05-13T23:49:31.749Z,15.73
2019-05-13T23:52:03.407Z,15.68
2019-05-13T23:54:35.095Z,15.65
2019-05-13T23:57:06.644Z,15.64
2019-05-13T23:59:41.670Z,15.67
